Disclaimer

Please do not use the information listed here in-flight or in-navigation, as they are not provided to us by the airports but are provided by volunteers, so they might be outdated.

Search


Regions


Airport information page

Radio informations:
METEO - 128.7 MHz

Airport informations:
Latitude: 55° 16' 12.34" N
Longitude: 086° 06' 25.95" E
Elevation: 863 feet - 263 meters
Operating hours: 24 hour operations
Operating agency: Civil government, landing fees and diplomatic clearance may be required
Timezone: UTC+7(+8DT) - Last Sunday in March to last Sunday in October
Fuel: N/A

Runway information:
05/23 - 10499 x 197 feet< - >3200 x 60 meters
05L/23R - 8655 x 155 feet< - >2638 x 47 meters

Recent METARs:
UNEE 211800Z 17004MPS 8000 -SN NSC M04/M05 Q1015 R23/891037 NOSIG RMK QFE738
UNEE 211830Z 18004MPS 5000 -SN NSC M04/M05 Q1015 R23/891037 NOSIG RMK QFE738
UNEE 211900Z 17003MPS 7000 -SN NSC M04/M05 Q1015 R23/891037 NOSIG RMK QFE738

Airport on the map: